This is the latest recevied weather packets stored in our database for station/object K9TLD. If no packets are shown the sender has not sent any weather packets the latest 10 day(s).
| Time | Temp. | Humidity | Pressure | Rain* | Wind** | Luminosity | Snow |
|---|---|---|---|---|---|---|---|
| 1778086076 | 6.67° C | 77% | 1015.3 hPa | 0 mm | - | 177 W/m² | - |
| 1778085773 | 7.22° C | 77% | 1015.2 hPa | 0 mm | - | 130 W/m² | - |
| 1778085470 | 7.22° C | 77% | 1015.2 hPa | 0 mm | - | 179 W/m² | - |
| 1778085165 | 7.78° C | 76% | 1015.2 hPa | 0 mm | - | 92 W/m² | - |
| 1778084861 | 7.78° C | 72% | 1015 hPa | 0 mm | - | 152 W/m² | - |
| 1778084559 | 7.78° C | 75% | 1015.1 hPa | 0 mm | - | 754 W/m² | - |
| 1778084256 | 7.22° C | 74% | 1015.2 hPa | 0 mm | - | 111 W/m² | - |
| 1778083953 | 7.22° C | 75% | 1015 hPa | 0 mm | - | 162 W/m² | - |
| 1778083650 | 8.33° C | 70% | 1015.1 hPa | 0 mm | - | 251 W/m² | - |
| 1778083347 | 7.78° C | 72% | 1015.1 hPa | 0 mm | - | 310 W/m² | - |
| 1778083046 | 8.33° C | 70% | 1015.2 hPa | 0 mm | - | 223 W/m² | - |
| 1778082742 | 8.89° C | 70% | 1015.2 hPa | 0 mm | - | 820 W/m² | - |
| 1778081610 | 8.89° C | 71% | 1015.2 hPa | 0 mm | - | 285 W/m² | - |
| 1778081306 | 8.89° C | 72% | 1015.1 hPa | 0 mm | - | 765 W/m² | - |
| 1778081004 | 9.44° C | 68% | 1015.1 hPa | 0 mm | - | 757 W/m² | - |
| 1778080702 | 8.89° C | 69% | 1015.1 hPa | 0 mm | - | 514 W/m² | - |
| 1778080398 | 9.44° C | 67% | 1015.3 hPa | 0 mm | - | 583 W/m² | - |
| 1778080095 | 8.89° C | 69% | 1015.5 hPa | 0 mm | - | 661 W/m² | - |
| 1778079792 | 8.33° C | 70% | 1015.3 hPa | 0 mm | - | 598 W/m² | - |
| 1778079489 | 8.89° C | 68% | 1015.4 hPa | 0 mm | - | 573 W/m² | - |
| 1778079186 | 8.33° C | 69% | 1015.3 hPa | 0 mm | - | 561 W/m² | - |
| 1778078883 | 8.33° C | 70% | 1015.3 hPa | 0 mm | - | 547 W/m² | - |
| 1778078580 | 8.89° C | 68% | 1015.3 hPa | 0 mm | - | 536 W/m² | - |
| 1778078278 | 8.89° C | 69% | 1015.2 hPa | 0 mm | - | 519 W/m² | - |
| 1778077975 | 8.89° C | 70% | 1015 hPa | 0 mm | - | 512 W/m² | - |
* Rain latest hour (hover to see other rain measurements)
** Current wind speed in m/s (hover to see current wind gust speed)